Time;durP1;ratioP1;P1;durP2;ratioP2;P2;SDS_P1;SDS_P2;PMS_P1;PMS_P2;Temp;Humidity;BMP_temperature;BMP_pressure;BME280_temperature;BME280_humidity;BME280_pressure;Samples;Min_cycle;Max_cycle;Signal;HPM_P1;HPM_P2
2023/12/03 00:01:32;;;;;;;82.50;38.45;;;;;;;;;;5118623;28;20072;-75
2023/12/03 00:03:58;;;;;;;77.85;37.85;;;;;;;;;;5118470;28;20024;-74
2023/12/03 00:06:24;;;;;;;74.88;35.97;;;;;;;;;;5120225;28;20016;-78
2023/12/03 00:08:50;;;;;;;74.78;36.35;;;;;;;;;;5099732;28;20064;-72
2023/12/03 00:11:16;;;;;;;73.82;36.42;;;;;;;;;;5094823;28;20052;-73
2023/12/03 00:13:42;;;;;;;74.65;35.72;;;;;;;;;;5094907;28;20382;-73
2023/12/03 00:16:09;;;;;;;75.95;37.08;;;;;;;;;;5094817;28;20020;-74
2023/12/03 00:18:35;;;;;;;78.43;38.25;;;;;;;;;;5094472;28;20020;-74
2023/12/03 00:21:01;;;;;;;73.93;37.13;;;;;;;;;;5094351;28;20069;-74
2023/12/03 00:23:27;;;;;;;79.60;37.47;;;;;;;;;;5094521;28;20394;-72
2023/12/03 00:25:53;;;;;;;74.18;36.95;;;;;;;;;;5094150;28;20024;-72
2023/12/03 00:28:19;;;;;;;81.65;38.33;;;;;;;;;;5093723;28;20162;-72
2023/12/03 00:30:45;;;;;;;77.63;38.13;;;;;;;;;;5094532;28;20032;-73
2023/12/03 00:33:11;;;;;;;76.25;37.17;;;;;;;;;;5093385;28;20386;-72
2023/12/03 00:35:37;;;;;;;76.32;36.58;;;;;;;;;;5093537;28;20028;-72
2023/12/03 00:38:03;;;;;;;79.78;38.35;;;;;;;;;;5095783;28;20508;-73
2023/12/03 00:40:29;;;;;;;73.60;36.65;;;;;;;;;;5099032;28;20111;-72
2023/12/03 00:42:55;;;;;;;69.47;36.38;;;;;;;;;;5096449;28;20105;-73
2023/12/03 00:45:22;;;;;;;79.55;38.15;;;;;;;;;;5094822;28;20453;-73
2023/12/03 00:47:48;;;;;;;70.78;35.50;;;;;;;;;;5097430;28;20375;-74
2023/12/03 00:50:14;;;;;;;69.97;35.42;;;;;;;;;;5101158;28;20031;-74
2023/12/03 00:52:40;;;;;;;76.63;37.78;;;;;;;;;;5101599;28;20038;-74
2023/12/03 00:55:07;;;;;;;76.85;38.08;;;;;;;;;;5103862;28;20084;-74
2023/12/03 00:57:34;;;;;;;74.43;36.83;;;;;;;;;;5102562;28;20015;-74
2023/12/03 01:00:00;;;;;;;75.75;38.05;;;;;;;;;;5100663;28;20075;-73
2023/12/03 01:02:26;;;;;;;77.07;37.95;;;;;;;;;;5103442;28;20024;-74
2023/12/03 01:04:52;;;;;;;77.13;38.30;;;;;;;;;;5091488;28;20115;-73
2023/12/03 01:07:17;;;;;;;81.20;39.70;;;;;;;;;;5092034;28;20522;-73
2023/12/03 01:09:43;;;;;;;77.70;37.95;;;;;;;;;;5094424;28;20077;-73
2023/12/03 01:12:10;;;;;;;72.45;36.53;;;;;;;;;;5094980;28;20525;-73
2023/12/03 01:14:35;;;;;;;75.38;37.85;;;;;;;;;;5096979;28;20073;-73
2023/12/03 01:17:01;;;;;;;78.15;37.90;;;;;;;;;;5095285;28;20020;-74
2023/12/03 01:19:27;;;;;;;73.68;38.17;;;;;;;;;;5093499;28;20387;-73
2023/12/03 01:21:53;;;;;;;80.78;37.83;;;;;;;;;;5093189;28;20040;-73
2023/12/03 01:24:19;;;;;;;76.30;37.42;;;;;;;;;;5092319;28;20028;-73
2023/12/03 01:26:45;;;;;;;82.03;39.60;;;;;;;;;;5094367;28;20398;-73
2023/12/03 01:29:12;;;;;;;81.35;39.20;;;;;;;;;;5099648;28;20082;-73
2023/12/03 01:31:38;;;;;;;76.90;38.33;;;;;;;;;;5093286;28;20030;-72
2023/12/03 01:34:04;;;;;;;80.95;39.88;;;;;;;;;;5093428;28;20058;-72
2023/12/03 01:36:30;;;;;;;73.03;36.47;;;;;;;;;;5093504;28;20048;-72
2023/12/03 01:38:57;;;;;;;75.50;36.17;;;;;;;;;;5093972;28;20056;-74
2023/12/03 01:41:23;;;;;;;70.63;35.47;;;;;;;;;;5095881;28;20457;-73
2023/12/03 01:43:50;;;;;;;69.95;36.40;;;;;;;;;;5109396;28;20032;-74
2023/12/03 01:46:16;;;;;;;71.93;37.30;;;;;;;;;;5102883;28;20039;-72
2023/12/03 01:48:43;;;;;;;70.85;35.47;;;;;;;;;;5095411;28;20024;-72
2023/12/03 01:51:09;;;;;;;65.40;33.90;;;;;;;;;;5092892;28;20384;-72
2023/12/03 01:53:36;;;;;;;62.40;31.77;;;;;;;;;;5091421;28;20386;-72
2023/12/03 01:56:02;;;;;;;66.82;33.88;;;;;;;;;;5092878;28;20027;-72
2023/12/03 01:58:28;;;;;;;65.35;33.13;;;;;;;;;;5092405;28;20390;-72
2023/12/03 02:00:54;;;;;;;62.22;32.33;;;;;;;;;;5086684;28;20031;-73
2023/12/03 02:03:20;;;;;;;65.97;33.17;;;;;;;;;;5072457;28;20418;-73
2023/12/03 02:05:54;;;;;;;65.88;32.55;;;;;;;;;;5071484;28;20024;-72
2023/12/03 02:08:20;;;;;;;61.77;31.63;;;;;;;;;;5072520;28;20036;-73
2023/12/03 02:10:46;;;;;;;61.28;32.15;;;;;;;;;;5072381;28;20104;-74
2023/12/03 02:13:12;;;;;;;66.45;33.53;;;;;;;;;;5072634;28;20073;-71
2023/12/03 02:15:37;;;;;;;66.30;32.97;;;;;;;;;;5072978;28;20025;-72
2023/12/03 02:18:03;;;;;;;66.03;33.25;;;;;;;;;;5072293;28;20024;-73
2023/12/03 02:20:29;;;;;;;67.35;32.03;;;;;;;;;;5082128;28;20031;-74
2023/12/03 02:23:02;;;;;;;67.95;33.33;;;;;;;;;;5102991;22;20044;-73
2023/12/03 02:25:28;;;;;;;62.88;31.60;;;;;;;;;;5073491;28;20028;-73
2023/12/03 02:27:54;;;;;;;67.00;32.45;;;;;;;;;;5091635;28;20028;-74
2023/12/03 02:30:20;;;;;;;64.60;31.42;;;;;;;;;;5091256;28;20024;-73
2023/12/03 02:32:46;;;;;;;60.55;30.15;;;;;;;;;;5091351;28;20474;-72
2023/12/03 02:35:11;;;;;;;68.32;33.08;;;;;;;;;;5091396;28;20028;-72
2023/12/03 02:37:37;;;;;;;62.05;31.30;;;;;;;;;;5091313;28;20036;-73
2023/12/03 02:40:04;;;;;;;65.25;31.73;;;;;;;;;;5083776;28;20025;-72
2023/12/03 02:42:30;;;;;;;68.88;32.53;;;;;;;;;;5073420;28;20070;-73
2023/12/03 02:44:56;;;;;;;67.07;32.85;;;;;;;;;;5070856;28;20029;-73
2023/12/03 02:47:22;;;;;;;66.57;32.42;;;;;;;;;;5072721;28;20067;-73
2023/12/03 02:49:48;;;;;;;71.28;32.83;;;;;;;;;;5072257;28;20418;-73
2023/12/03 02:52:13;;;;;;;70.25;33.63;;;;;;;;;;5076080;28;20338;-73
2023/12/03 02:54:39;;;;;;;72.57;33.33;;;;;;;;;;5057582;28;20024;-73
2023/12/03 02:57:05;;;;;;;69.97;33.50;;;;;;;;;;5073914;28;20074;-74
2023/12/03 02:59:32;;;;;;;74.68;34.03;;;;;;;;;;5074120;28;20021;-73
2023/12/03 03:01:58;;;;;;;72.88;33.65;;;;;;;;;;5073984;28;20107;-73
2023/12/03 03:04:24;;;;;;;72.88;34.58;;;;;;;;;;5074023;28;20093;-74
2023/12/03 03:06:50;;;;;;;72.82;35.25;;;;;;;;;;5088483;28;20028;-76
2023/12/03 03:09:16;;;;;;;74.53;33.63;;;;;;;;;;5096376;28;20032;-76
2023/12/03 03:11:42;;;;;;;76.22;35.75;;;;;;;;;;5095672;28;20032;-76
2023/12/03 03:14:08;;;;;;;74.95;34.63;;;;;;;;;;5096138;28;20075;-75
2023/12/03 03:16:34;;;;;;;70.63;33.80;;;;;;;;;;5096813;28;20059;-74
2023/12/03 03:19:00;;;;;;;74.53;33.70;;;;;;;;;;5085894;28;20212;-74
2023/12/03 03:21:26;;;;;;;77.03;35.05;;;;;;;;;;5087071;28;20036;-75
2023/12/03 03:23:52;;;;;;;72.35;34.83;;;;;;;;;;5091287;28;20028;-74
2023/12/03 03:26:18;;;;;;;71.25;35.08;;;;;;;;;;5101556;28;20024;-75
2023/12/03 03:28:44;;;;;;;76.70;35.15;;;;;;;;;;5095289;28;20569;-75
2023/12/03 03:31:10;;;;;;;78.45;35.45;;;;;;;;;;5076326;28;20036;-74
2023/12/03 03:33:36;;;;;;;74.50;34.78;;;;;;;;;;5093830;28;20024;-74
2023/12/03 03:36:02;;;;;;;74.40;35.53;;;;;;;;;;5093385;28;20542;-74
2023/12/03 03:38:28;;;;;;;70.28;34.40;;;;;;;;;;5093564;28;20028;-74
2023/12/03 03:40:54;;;;;;;75.18;34.83;;;;;;;;;;5093582;28;20122;-74
2023/12/03 03:43:20;;;;;;;72.68;34.42;;;;;;;;;;5093927;28;20073;-74
2023/12/03 03:45:46;;;;;;;73.78;34.30;;;;;;;;;;5093596;28;20047;-75
2023/12/03 03:48:12;;;;;;;72.97;34.35;;;;;;;;;;5094216;28;20035;-76
2023/12/03 03:50:38;;;;;;;70.05;34.53;;;;;;;;;;5094786;28;20020;-75
2023/12/03 03:53:04;;;;;;;70.28;34.47;;;;;;;;;;5094462;28;20020;-74
2023/12/03 03:55:30;;;;;;;69.47;32.53;;;;;;;;;;5094635;28;20366;-75
2023/12/03 03:57:56;;;;;;;67.28;33.58;;;;;;;;;;5054859;28;20078;-75
2023/12/03 04:00:22;;;;;;;66.13;32.05;;;;;;;;;;5055283;28;20032;-75
2023/12/03 04:02:48;;;;;;;67.43;32.03;;;;;;;;;;5054189;28;20408;-74
2023/12/03 04:05:14;;;;;;;70.03;33.33;;;;;;;;;;5053911;28;20025;-75
2023/12/03 04:07:40;;;;;;;71.50;34.63;;;;;;;;;;5053561;28;20442;-75
2023/12/03 04:10:06;;;;;;;75.03;35.72;;;;;;;;;;5053809;28;20109;-75
2023/12/03 04:12:32;;;;;;;71.25;34.22;;;;;;;;;;5053734;28;20028;-74
2023/12/03 04:14:58;;;;;;;69.78;33.45;;;;;;;;;;5055915;28;20025;-78
2023/12/03 04:17:24;;;;;;;77.35;35.83;;;;;;;;;;5054081;28;20028;-75
2023/12/03 04:19:50;;;;;;;73.32;35.17;;;;;;;;;;5053439;28;20059;-76
2023/12/03 04:22:16;;;;;;;73.68;35.92;;;;;;;;;;5053654;28;20040;-73
2023/12/03 04:24:42;;;;;;;73.93;35.17;;;;;;;;;;5053943;28;20026;-75
2023/12/03 04:27:08;;;;;;;81.03;37.67;;;;;;;;;;5053373;28;20029;-75
2023/12/03 04:29:34;;;;;;;75.60;36.42;;;;;;;;;;5053830;28;20388;-72
2023/12/03 04:32:00;;;;;;;79.15;36.90;;;;;;;;;;5053239;28;20025;-74
2023/12/03 04:34:26;;;;;;;81.32;37.88;;;;;;;;;;5053546;28;20021;-73
2023/12/03 04:36:52;;;;;;;81.55;37.55;;;;;;;;;;5053351;28;20028;-73
2023/12/03 04:39:18;;;;;;;83.95;37.67;;;;;;;;;;5054759;28;20356;-74
2023/12/03 04:41:44;;;;;;;79.10;37.38;;;;;;;;;;5055183;28;20036;-73
2023/12/03 04:44:10;;;;;;;81.57;38.00;;;;;;;;;;5055372;28;20067;-74
2023/12/03 04:46:39;;;;;;;79.60;35.42;;;;;;;;;;5053420;28;20320;-74
2023/12/03 04:49:05;;;;;;;74.55;34.08;;;;;;;;;;5053003;28;20392;-75
2023/12/03 04:51:31;;;;;;;77.35;35.85;;;;;;;;;;5052808;28;20028;-74
2023/12/03 04:53:57;;;;;;;71.60;33.63;;;;;;;;;;5053181;28;20509;-74
2023/12/03 04:56:23;;;;;;;73.97;34.60;;;;;;;;;;5053096;28;20063;-74
2023/12/03 04:58:49;;;;;;;84.35;38.90;;;;;;;;;;5052803;28;20043;-73
2023/12/03 05:01:17;;;;;;;77.85;36.95;;;;;;;;;;5053392;28;20031;-74
2023/12/03 05:03:43;;;;;;;81.75;37.38;;;;;;;;;;5054692;28;20024;-73
2023/12/03 05:06:09;;;;;;;81.45;36.65;;;;;;;;;;5054414;28;20029;-74
2023/12/03 05:08:35;;;;;;;80.95;37.58;;;;;;;;;;5051688;28;20028;-72
2023/12/03 05:11:05;;;;;;;89.38;40.00;;;;;;;;;;5052279;28;20040;-75
2023/12/03 05:13:31;;;;;;;83.43;38.13;;;;;;;;;;5072359;28;20406;-75
2023/12/03 05:15:57;;;;;;;87.90;38.88;;;;;;;;;;5080132;28;20081;-75
2023/12/03 05:18:23;;;;;;;87.47;39.90;;;;;;;;;;5073921;28;20028;-74
2023/12/03 05:20:49;;;;;;;89.95;40.33;;;;;;;;;;5070407;28;20039;-74
2023/12/03 05:23:15;;;;;;;84.93;38.17;;;;;;;;;;5075812;28;20032;-75
2023/12/03 05:25:41;;;;;;;89.15;38.70;;;;;;;;;;5074391;28;20024;-76
2023/12/03 05:28:07;;;;;;;84.90;38.58;;;;;;;;;;5060898;28;20032;-75
2023/12/03 05:30:33;;;;;;;88.75;39.20;;;;;;;;;;5073182;28;20024;-75
2023/12/03 05:33:00;;;;;;;84.68;37.83;;;;;;;;;;5058141;28;20021;-77
2023/12/03 05:35:26;;;;;;;82.45;36.78;;;;;;;;;;5080489;28;20032;-76
2023/12/03 05:37:52;;;;;;;94.05;38.58;;;;;;;;;;5085294;28;20054;-74
2023/12/03 05:40:18;;;;;;;84.40;37.08;;;;;;;;;;5056106;28;20039;-74
2023/12/03 05:42:44;;;;;;;99.20;40.65;;;;;;;;;;5071883;28;20024;-73
2023/12/03 05:45:10;;;;;;;79.97;36.70;;;;;;;;;;5072115;28;20029;-73
2023/12/03 05:47:36;;;;;;;72.75;33.08;;;;;;;;;;5071874;28;20064;-73
2023/12/03 05:50:02;;;;;;;79.80;34.40;;;;;;;;;;5071695;28;20110;-73
2023/12/03 05:52:29;;;;;;;76.57;34.97;;;;;;;;;;5071533;28;20038;-73
2023/12/03 05:54:55;;;;;;;78.18;33.35;;;;;;;;;;5076012;28;20032;-78
2023/12/03 05:57:21;;;;;;;85.53;34.90;;;;;;;;;;5082899;28;20028;-78
2023/12/03 05:59:47;;;;;;;79.22;33.97;;;;;;;;;;5039094;28;20025;-78
2023/12/03 06:02:14;;;;;;;77.05;33.35;;;;;;;;;;5072338;28;20020;-75
2023/12/03 06:04:40;;;;;;;71.25;31.35;;;;;;;;;;5069157;28;20028;-74
2023/12/03 06:07:06;;;;;;;69.65;31.95;;;;;;;;;;5073603;28;20096;-74
2023/12/03 06:09:32;;;;;;;78.47;34.17;;;;;;;;;;5070608;28;20496;-75
2023/12/03 06:11:58;;;;;;;81.68;34.17;;;;;;;;;;5078955;28;20024;-74
2023/12/03 06:14:24;;;;;;;108.43;35.47;;;;;;;;;;5070913;28;20470;-72
2023/12/03 06:16:50;;;;;;;75.82;33.35;;;;;;;;;;5068449;28;20062;-73
2023/12/03 06:19:17;;;;;;;79.00;33.70;;;;;;;;;;5068560;28;20096;-73
2023/12/03 06:21:43;;;;;;;70.72;30.73;;;;;;;;;;5069985;28;20056;-73
2023/12/03 06:24:09;;;;;;;66.20;29.90;;;;;;;;;;5071840;28;20040;-76
2023/12/03 06:26:35;;;;;;;68.13;30.80;;;;;;;;;;5069152;28;20108;-73
2023/12/03 06:29:01;;;;;;;71.70;30.58;;;;;;;;;;5072857;28;20060;-73
2023/12/03 06:31:27;;;;;;;68.70;30.90;;;;;;;;;;5064349;28;20097;-77
2023/12/03 06:33:54;;;;;;;74.25;31.58;;;;;;;;;;5058266;28;20320;-74
2023/12/03 06:36:20;;;;;;;70.60;31.67;;;;;;;;;;5073311;28;20440;-76
2023/12/03 06:38:46;;;;;;;80.20;34.95;;;;;;;;;;5073260;28;20013;-74
2023/12/03 06:41:12;;;;;;;81.88;34.42;;;;;;;;;;5076848;28;20032;-74
2023/12/03 06:43:38;;;;;;;81.10;34.03;;;;;;;;;;5077762;28;20480;-74
2023/12/03 06:46:04;;;;;;;87.82;36.78;;;;;;;;;;5074164;28;20031;-73
2023/12/03 06:48:30;;;;;;;82.72;33.92;;;;;;;;;;5071566;28;20032;-73
2023/12/03 06:50:56;;;;;;;84.60;37.00;;;;;;;;;;5077193;28;20024;-75
2023/12/03 06:53:22;;;;;;;97.90;31.85;;;;;;;;;;5078037;28;20044;-75
2023/12/03 06:55:48;;;;;;;72.13;31.52;;;;;;;;;;5068727;28;20082;-74
2023/12/03 06:58:14;;;;;;;140.23;35.63;;;;;;;;;;5072616;28;20048;-73
2023/12/03 07:00:40;;;;;;;78.78;34.47;;;;;;;;;;5070562;28;20060;-74
2023/12/03 07:03:06;;;;;;;82.95;36.80;;;;;;;;;;5070204;28;20074;-73
2023/12/03 07:05:32;;;;;;;90.55;36.10;;;;;;;;;;5070799;28;20016;-73
2023/12/03 07:07:58;;;;;;;108.22;35.75;;;;;;;;;;5075007;28;20388;-75
2023/12/03 07:10:24;;;;;;;83.93;33.70;;;;;;;;;;5058403;28;20043;-74
2023/12/03 07:12:50;;;;;;;82.93;37.10;;;;;;;;;;5064979;28;20051;-77
2023/12/03 07:15:16;;;;;;;94.03;40.40;;;;;;;;;;5071226;28;20028;-76
2023/12/03 07:17:42;;;;;;;91.57;41.13;;;;;;;;;;5071142;28;20112;-75
2023/12/03 07:20:09;;;;;;;88.50;38.45;;;;;;;;;;5073264;28;20024;-71
2023/12/03 07:22:35;;;;;;;92.68;39.55;;;;;;;;;;5070421;28;20407;-72
2023/12/03 07:25:02;;;;;;;92.45;38.13;;;;;;;;;;5070987;28;20475;-72
2023/12/03 07:27:28;;;;;;;97.55;40.20;;;;;;;;;;5070616;28;20024;-74
2023/12/03 07:29:55;;;;;;;85.55;37.17;;;;;;;;;;5070683;28;20090;-72
2023/12/03 07:32:23;;;;;;;82.60;36.30;;;;;;;;;;5070563;28;20116;-75
2023/12/03 07:34:49;;;;;;;77.88;34.67;;;;;;;;;;5071526;28;20029;-74
2023/12/03 07:37:15;;;;;;;83.28;33.72;;;;;;;;;;5073296;28;20088;-73
2023/12/03 07:39:41;;;;;;;74.10;32.95;;;;;;;;;;5056421;28;20115;-74
2023/12/03 07:42:07;;;;;;;74.88;32.13;;;;;;;;;;5074230;28;20025;-74
2023/12/03 07:44:33;;;;;;;83.35;34.63;;;;;;;;;;5076399;28;20051;-74
2023/12/03 07:46:59;;;;;;;72.43;31.13;;;;;;;;;;5077901;28;20388;-73
2023/12/03 07:49:25;;;;;;;72.45;31.17;;;;;;;;;;5076860;28;20487;-76
2023/12/03 07:51:51;;;;;;;91.70;30.98;;;;;;;;;;5078564;28;20028;-74
2023/12/03 07:54:17;;;;;;;88.03;38.25;;;;;;;;;;5058352;28;20169;-73
2023/12/03 07:56:43;;;;;;;75.70;34.00;;;;;;;;;;5073212;28;20098;-75
2023/12/03 08:00:21;;;;;;;72.00;32.33;;;0.60;99.90;;;;;;5131772;27;20357;-75
2023/12/03 08:02:47;;;;;;;94.53;31.77;;;0.30;99.90;;;;;;5130003;28;20257;-73
2023/12/03 08:05:12;;;;;;;77.90;32.00;;;0.30;99.90;;;;;;5134291;28;20065;-73
2023/12/03 08:07:38;;;;;;;74.60;30.48;;;0.30;99.90;;;;;;5121410;28;20051;-73
2023/12/03 08:10:04;;;;;;;69.63;31.42;;;0.50;99.90;;;;;;5131059;28;20016;-72
2023/12/03 08:12:29;;;;;;;105.60;32.30;;;0.40;99.90;;;;;;5111674;28;20031;-71
2023/12/03 08:14:56;;;;;;;72.68;29.77;;;0.50;99.90;;;;;;5107409;28;20024;-71
2023/12/03 08:17:22;;;;;;;59.65;26.75;;;0.40;99.90;;;;;;5112547;28;20031;-72
2023/12/03 08:19:48;;;;;;;52.10;25.80;;;0.30;99.90;;;;;;5108013;28;20024;-71
2023/12/03 08:22:13;;;;;;;55.28;26.00;;;0.30;99.90;;;;;;5107682;28;20382;-75
2023/12/03 08:24:39;;;;;;;54.03;23.83;;;0.30;99.90;;;;;;5107513;28;20027;-73
2023/12/03 08:27:04;;;;;;;48.65;24.35;;;0.40;99.90;;;;;;5107322;28;20146;-73
2023/12/03 08:29:30;;;;;;;45.28;21.65;;;0.30;99.90;;;;;;5107414;28;20077;-72
2023/12/03 08:31:56;;;;;;;42.72;22.27;;;0.30;99.90;;;;;;5107091;28;20069;-73
2023/12/03 08:34:21;;;;;;;48.58;21.42;;;0.30;99.90;;;;;;5107859;28;20500;-74
2023/12/03 08:36:47;;;;;;;49.60;21.75;;;0.20;99.90;;;;;;5107257;28;20032;-74
2023/12/03 08:39:12;;;;;;;46.38;23.13;;;0.10;99.90;;;;;;5107064;28;20038;-73
2023/12/03 08:41:38;;;;;;;54.22;24.95;;;0.10;99.90;;;;;;5107221;28;20047;-74
2023/12/03 08:44:04;;;;;;;38.33;20.75;;;0.10;99.90;;;;;;5106780;28;20028;-74
2023/12/03 08:46:29;;;;;;;42.85;20.48;;;0.10;99.90;;;;;;5106541;28;20028;-73
2023/12/03 08:48:55;;;;;;;38.80;21.15;;;0.00;99.90;;;;;;5107347;28;20064;-75
2023/12/03 08:51:21;;;;;;;40.25;20.98;;;0.10;99.90;;;;;;5107344;28;20032;-75
2023/12/03 08:53:48;;;;;;;42.17;21.67;;;0.00;99.90;;;;;;5108828;28;20137;-75
2023/12/03 08:56:13;;;;;;;53.25;23.90;;;0.00;99.90;;;;;;5107624;28;20024;-74
2023/12/03 08:58:42;;;;;;;45.53;23.83;;;-0.10;99.90;;;;;;5107378;28;20024;-73
2023/12/03 09:01:08;;;;;;;42.17;22.92;;;-0.10;99.90;;;;;;5107665;28;20032;-76
2023/12/03 09:03:40;;;;;;;47.45;23.67;;;-0.10;99.90;;;;;;5107633;28;20024;-73
2023/12/03 09:06:06;;;;;;;46.28;23.90;;;-0.10;99.90;;;;;;5107718;28;20049;-75
2023/12/03 09:08:32;;;;;;;52.70;25.65;;;-0.20;99.90;;;;;;5108618;28;20024;-77
2023/12/03 09:10:58;;;;;;;58.40;27.00;;;-0.10;99.90;;;;;;5099923;28;20024;-77
2023/12/03 09:13:24;;;;;;;55.78;26.98;;;-0.20;99.90;;;;;;5092828;28;20120;-77
2023/12/03 09:15:51;;;;;;;61.05;26.60;;;-0.10;99.90;;;;;;5092820;28;20118;-78
2023/12/03 09:18:16;;;;;;;55.08;26.45;;;-0.10;99.90;;;;;;5097984;28;20093;-74
2023/12/03 09:20:42;;;;;;;56.75;27.38;;;-0.10;99.90;;;;;;5093235;28;20032;-73
2023/12/03 09:23:07;;;;;;;59.92;28.48;;;-0.20;99.90;;;;;;5092866;28;20020;-74
2023/12/03 09:25:33;;;;;;;66.30;28.00;;;-0.10;99.90;;;;;;5094172;28;20070;-76
2023/12/03 09:27:59;;;;;;;63.47;29.63;;;-0.10;99.90;;;;;;5093787;28;20099;-74
2023/12/03 09:30:24;;;;;;;59.92;29.17;;;0.00;99.90;;;;;;5096049;28;20344;-73
2023/12/03 09:32:50;;;;;;;80.45;27.30;;;0.00;99.90;;;;;;5096356;28;20016;-75
2023/12/03 09:35:16;;;;;;;61.50;28.02;;;-0.10;99.90;;;;;;5095522;28;20013;-75
2023/12/03 09:37:41;;;;;;;70.07;28.23;;;0.00;99.90;;;;;;5095734;28;20020;-74
2023/12/03 09:40:07;;;;;;;59.35;27.20;;;0.00;99.90;;;;;;5095653;28;20480;-75
2023/12/03 09:42:36;;;;;;;64.22;27.98;;;0.10;99.90;;;;;;5092632;28;20032;-74
2023/12/03 09:45:09;;;;;;;67.65;27.05;;;0.20;99.90;;;;;;5092580;28;20020;-74
2023/12/03 09:47:36;;;;;;;56.65;27.90;;;0.20;99.90;;;;;;5092266;28;20031;-74
2023/12/03 09:50:04;;;;;;;77.82;30.45;;;0.20;99.90;;;;;;5092384;28;20056;-72
2023/12/03 09:52:33;;;;;;;67.40;29.08;;;0.20;99.90;;;;;;5092207;28;20089;-71
2023/12/03 09:54:59;;;;;;;70.90;27.27;;;0.30;99.90;;;;;;5092282;28;20020;-73
2023/12/03 09:57:27;;;;;;;59.78;27.38;;;0.30;99.90;;;;;;5091815;28;20103;-73
2023/12/03 09:59:57;;;;;;;63.60;28.50;;;0.20;99.90;;;;;;5092101;28;20028;-72
2023/12/03 10:02:26;;;;;;;65.43;28.50;;;0.30;99.90;;;;;;5094613;28;20043;-75
2023/12/03 10:04:52;;;;;;;63.35;27.13;;;0.40;99.90;;;;;;5097860;28;20467;-75
2023/12/03 10:07:21;;;;;;;60.95;26.58;;;0.30;99.90;;;;;;5099086;28;20043;-74
2023/12/03 10:09:48;;;;;;;65.70;27.65;;;0.50;99.90;;;;;;5097269;28;20440;-74
2023/12/03 10:12:17;;;;;;;62.78;27.30;;;0.50;99.90;;;;;;5095559;28;20032;-75
2023/12/03 10:14:43;;;;;;;69.70;28.63;;;0.50;99.90;;;;;;5092126;28;20024;-74
2023/12/03 10:17:08;;;;;;;62.65;27.10;;;0.50;99.90;;;;;;5091752;28;20085;-73
2023/12/03 10:19:34;;;;;;;70.95;30.45;;;0.30;99.90;;;;;;5093492;28;20386;-74
2023/12/03 10:21:59;;;;;;;73.45;30.10;;;0.40;99.90;;;;;;5090674;28;20028;-73
2023/12/03 10:24:25;;;;;;;76.97;30.67;;;0.40;99.90;;;;;;5091640;28;20596;-73
2023/12/03 10:26:56;;;;;;;75.65;29.52;;;0.50;99.90;;;;;;5091390;28;20024;-74
2023/12/03 10:29:25;;;;;;;72.97;29.85;;;0.50;99.90;;;;;;5091541;28;20078;-73
2023/12/03 10:31:53;;;;;;;68.43;28.58;;;0.60;99.90;;;;;;5091546;28;20123;-74
2023/12/03 10:34:19;;;;;;;74.07;30.15;;;0.60;99.90;;;;;;5091814;28;20028;-77
2023/12/03 10:36:46;;;;;;;74.43;30.83;;;0.70;99.90;;;;;;5094383;28;20386;-76
2023/12/03 10:39:16;;;;;;;71.30;30.75;;;0.50;99.90;;;;;;5092874;28;20024;-76
2023/12/03 10:41:46;;;;;;;73.53;32.20;;;0.70;99.90;;;;;;5091928;28;20020;-77
2023/12/03 10:44:24;;;;;;;70.35;30.80;;;0.70;99.90;;;;;;5092793;28;20103;-77
2023/12/03 10:46:50;;;;;;;74.72;31.38;;;0.60;99.90;;;;;;5092460;28;20370;-72
2023/12/03 10:49:16;;;;;;;82.40;33.85;;;0.60;99.90;;;;;;5094029;28;20087;-72
2023/12/03 10:51:44;;;;;;;77.10;32.03;;;0.70;99.90;;;;;;5091861;28;20097;-73
2023/12/03 10:54:10;;;;;;;70.00;30.35;;;0.70;99.90;;;;;;5092234;28;20039;-72
2023/12/03 10:56:36;;;;;;;75.53;30.52;;;0.60;99.90;;;;;;5091100;28;20093;-71
2023/12/03 10:59:04;;;;;;;74.82;31.63;;;0.70;99.90;;;;;;5091844;28;20483;-72
2023/12/03 11:01:31;;;;;;;74.18;30.98;;;0.70;99.90;;;;;;5095230;28;20076;-73
2023/12/03 11:04:15;;;;;;;71.10;31.85;;;0.70;99.90;;;;;;5091113;28;20021;-72
2023/12/03 11:06:43;;;;;;;75.07;31.95;;;0.80;99.90;;;;;;5091281;28;20391;-71
2023/12/03 11:09:08;;;;;;;64.95;30.20;;;0.80;99.90;;;;;;5090933;28;20107;-74
2023/12/03 11:11:37;;;;;;;67.38;29.17;;;0.90;99.90;;;;;;5092208;28;20089;-72
2023/12/03 11:14:03;;;;;;;69.97;31.17;;;0.90;99.90;;;;;;5090915;28;20032;-71
2023/12/03 11:16:43;;;;;;;72.05;31.58;;;0.80;99.90;;;;;;5091204;28;20027;-73
2023/12/03 11:19:16;;;;;;;70.45;30.80;;;0.70;99.90;;;;;;5091586;28;20020;-73
2023/12/03 11:21:57;;;;;;;65.60;29.42;;;0.70;99.90;;;;;;5093505;28;20042;-73
2023/12/03 11:24:55;;;;;;;65.75;28.27;;;0.80;99.90;;;;;;5094204;28;20305;-73
2023/12/03 11:27:25;;;;;;;69.38;30.15;;;0.90;99.90;;;;;;5090920;28;20021;-74
2023/12/03 11:29:52;;;;;;;71.97;31.10;;;0.80;99.90;;;;;;5090166;28;20032;-73
2023/12/03 11:32:19;;;;;;;72.53;31.75;;;0.80;99.90;;;;;;5091713;28;20131;-71
2023/12/03 11:34:55;;;;;;;62.35;29.23;;;0.90;99.90;;;;;;5091354;28;20020;-75
2023/12/03 11:37:22;;;;;;;65.15;30.60;;;0.90;99.90;;;;;;5091434;28;20487;-74
2023/12/03 11:39:48;;;;;;;67.57;29.73;;;0.90;99.90;;;;;;5091363;28;20035;-73
2023/12/03 11:42:15;;;;;;;72.28;31.27;;;0.90;99.90;;;;;;5091296;28;20044;-73
2023/12/03 11:44:44;;;;;;;74.22;31.02;;;1.10;99.90;;;;;;5091673;28;20043;-72
2023/12/03 11:47:10;;;;;;;69.80;31.02;;;1.10;99.90;;;;;;5091101;28;20437;-73
2023/12/03 11:49:37;;;;;;;71.32;30.90;;;1.20;99.90;;;;;;5091732;28;20119;-74
2023/12/03 11:52:03;;;;;;;68.72;30.13;;;1.40;99.90;;;;;;5092845;28;20129;-73
2023/12/03 11:54:57;;;;;;;71.82;31.13;;;1.90;99.90;;;;;;5112592;28;20509;-72
2023/12/03 11:57:24;;;;;;;61.40;29.40;;;2.60;99.90;;;;;;5111492;28;20027;-73
2023/12/03 11:59:49;;;;;;;63.72;29.05;;;3.10;98.90;;;;;;5111873;28;20486;-74
2023/12/03 12:02:15;;;;;;;62.53;28.40;;;3.20;88.70;;;;;;5112188;28;20078;-75
2023/12/03 12:04:41;;;;;;;61.55;27.85;;;3.40;76.30;;;;;;5112010;28;20498;-73
2023/12/03 12:07:17;;;;;;;57.28;27.42;;;3.60;70.20;;;;;;5111349;28;20027;-72
2023/12/03 12:09:43;;;;;;;57.47;28.42;;;4.30;82.80;;;;;;5111660;28;20020;-73
2023/12/03 12:12:09;;;;;;;55.13;26.63;;;5.20;59.80;;;;;;5111441;28;20043;-72
2023/12/03 12:14:35;;;;;;;60.33;26.85;;;5.50;12.20;;;;;;5111559;28;20055;-72
2023/12/03 12:17:01;;;;;;;54.15;26.67;;;5.80;1.00;;;;;;5111490;28;20040;-73
2023/12/03 12:19:26;;;;;;;57.53;27.65;;;5.80;1.00;;;;;;5111358;28;20102;-73
2023/12/03 12:21:56;;;;;;;56.67;26.02;;;5.70;1.00;;;;;;5111648;28;20073;-72
2023/12/03 12:24:23;;;;;;;54.50;26.08;;;5.70;1.00;;;;;;5112712;28;20043;-71
2023/12/03 12:26:50;;;;;;;52.35;26.02;;;5.80;1.00;;;;;;5111317;28;20027;-72
2023/12/03 12:29:16;;;;;;;50.47;25.65;;;5.90;1.00;;;;;;5111540;28;20032;-71
2023/12/03 12:31:42;;;;;;;49.13;26.30;;;5.90;1.00;;;;;;5111606;28;20019;-73
2023/12/03 12:34:09;;;;;;;50.70;25.75;;;5.90;1.00;;;;;;5111447;28;20028;-72
2023/12/03 12:36:35;;;;;;;54.33;25.73;;;5.80;1.00;;;;;;5110584;28;20068;-74
2023/12/03 12:39:01;;;;;;;56.08;27.33;;;5.80;1.00;;;;;;5111822;28;20181;-74
2023/12/03 12:41:37;;;;;;;49.60;25.40;;;6.20;1.00;;;;;;5111273;28;20016;-73
2023/12/03 12:44:03;;;;;;;50.72;25.58;;;7.40;1.00;;;;;;5111289;28;20016;-73
2023/12/03 12:46:29;;;;;;;49.88;25.90;;;7.50;1.00;;;;;;5114104;28;20390;-74
2023/12/03 12:49:14;;;;;;;48.63;24.02;;;7.90;99.90;;;;;;5113902;28;20028;-75
2023/12/03 12:51:39;;;;;;;50.30;24.75;;;8.60;99.90;;;;;;5110483;28;20032;-73
2023/12/03 12:54:07;;;;;;;47.78;25.05;;;8.90;1.00;;;;;;5094677;28;20118;-72
2023/12/03 12:56:33;;;;;;;46.30;24.92;;;9.50;99.90;;;;;;5110442;28;20549;-71
2023/12/03 12:58:59;;;;;;;48.88;24.52;;;9.80;99.90;;;;;;5114292;28;20129;-74
2023/12/03 13:01:25;;;;;;;49.35;25.80;;;;;;;;;;5114645;28;20102;-72
2023/12/03 13:03:51;;;;;;;49.25;26.30;;;;;;;;;;5114568;28;20040;-73
2023/12/03 13:06:18;;;;;;;45.08;24.92;;;;;;;;;;5114453;28;20024;-73
2023/12/03 13:08:44;;;;;;;50.08;26.27;;;;;;;;;;5113943;28;20032;-73
2023/12/03 13:11:10;;;;;;;46.85;26.33;;;10.20;1.00;;;;;;5114135;28;20043;-74
2023/12/03 13:13:36;;;;;;;48.90;25.42;;;10.20;99.90;;;;;;5116415;28;20509;-72
2023/12/03 13:16:02;;;;;;;45.17;24.70;;;10.40;99.90;;;;;;5114316;28;20023;-72
2023/12/03 13:18:28;;;;;;;41.10;22.63;;;10.70;99.90;;;;;;5113819;28;20051;-73
2023/12/03 13:20:54;;;;;;;47.58;25.15;;;11.10;99.90;;;;;;5113999;28;20034;-73
2023/12/03 13:23:19;;;;;;;47.33;24.98;;;11.30;99.90;;;;;;5114389;28;20047;-72
2023/12/03 13:25:45;;;;;;;48.97;26.48;;;11.20;99.90;;;;;;5115070;28;20019;-72
2023/12/03 13:28:11;;;;;;;44.95;24.88;;;10.80;99.90;;;;;;5115406;28;20028;-74
2023/12/03 13:30:36;;;;;;;50.13;26.30;;;10.50;1.00;;;;;;5114199;28;20506;-73
2023/12/03 13:33:02;;;;;;;49.80;26.80;;;9.70;99.90;;;;;;5114090;28;20124;-74